Data for 05/16/2009

Time Sea-Level Adjusted Pressure Absolute Pressure Temperature Relative Humidity Dew Point   
(mb) (inHg) (mb) (inHg) (C) (F) (%) (C) (F)
00:05 1024 30.24 853 25.19 6.2 43.1 68 0.7 33.2
00:10 1024 30.24 853 25.19 6.2 43.1 68 0.7 33.3
00:15 1024 30.24 853 25.19 6 42.9 69 0.7 33.3
00:20 1024 30.24 853 25.19 5.9 42.6 69 0.7 33.3
00:25 1024 30.24 853 25.19 5.8 42.4 70 0.7 33.3
00:30 1024 30.24 853 25.19 5.8 42.4 70 0.7 33.3
00:35 1024 30.24 853 25.19 5.7 42.3 70 0.7 33.3
00:40 1024 30.24 853 25.19 5.7 42.3 70 0.7 33.3
00:45 1024 30.24 853 25.19 5.5 41.9 71 0.7 33.3
00:50 1024 30.24 853 25.19 5.3 41.6 72 0.7 33.3
00:55 1024 30.24 853 25.19 5.2 41.4 72 0.6 33
01:00 1024 30.24 853 25.19 5.2 41.3 72 0.5 32.9
01:05 1024 30.24 853 25.19 5.1 41.2 72 0.5 32.8
01:10 1024 30.24 853 25.19 5 41 73 0.6 33
01:15 1024 30.24 853 25.19 4.9 40.9 74 0.7 33.2
01:20 1024 30.24 853 25.19 4.8 40.6 75 0.8 33.4
01:25 1024 30.24 853 25.19 4.7 40.5 75 0.7 33.3
01:30 1024 30.24 853 25.19 4.7 40.4 74 0.5 32.9
01:35 1024 30.24 853 25.19 4.6 40.3 74 0.5 32.9
01:40 1024 30.24 853 25.19 4.6 40.3 75 0.5 33
01:45 1024 30.24 853 25.19 4.5 40.2 76 0.6 33.1
01:50 1024 30.24 853 25.19 4.4 40 76 0.5 32.9
01:55 1024 30.24 853 25.19 4.3 39.8 76 0.5 32.9
02:00 1024 30.24 853 25.19 4.2 39.6 77 0.5 32.9
02:05 1024 30.24 853 25.19 4.1 39.4 76 0.2 32.4
02:10 1024 30.24 853 25.19 4 39.2 77 0.3 32.6
02:15 1024 30.24 853 25.19 3.9 39.1 77 0.3 32.5
02:20 1024 30.24 853 25.19 3.9 39.1 76 0.1 32.2
02:25 1024 30.24 853 25.19 3.9 39.1 75 -0 32
02:30 1024 30.24 853 25.19 3.9 39.1 75 -0 31.9
02:35 1024 30.24 853 25.19 3.9 38.9 75 -0.2 31.7
02:40 1024 30.24 853 25.19 3.8 38.9 74 -0.3 31.4
02:45 1024 30.24 853 25.19 3.8 38.9 74 -0.4 31.2
02:50 1024 30.24 853 25.19 3.8 38.9 73 -0.5 31.1
02:55 1024 30.24 853 25.19 3.8 38.9 73 -0.5 31.1
03:00 1024 30.24 853 25.19 3.8 38.9 73 -0.6 30.9
03:05 1024 30.24 853 25.19 3.8 38.9 73 -0.5 31.1
03:10 1024 30.24 853 25.19 3.8 38.8 74 -0.5 31.2
03:15 1024 30.24 853 25.19 3.7 38.6 74 -0.4 31.2
03:20 1024 30.24 853 25.19 3.6 38.5 74 -0.5 31
03:25 1024 30.24 853 25.19 3.5 38.2 77 -0.3 31.5
03:30 1024 30.24 853 25.19 3.3 37.9 78 -0.3 31.5
03:35 1024 30.24 853 25.19 3.1 37.6 79 -0.2 31.7
03:40 1024 30.24 853 25.19 3.1 37.6 79 -0.2 31.7
03:45 1024 30.24 853 25.19 3.1 37.5 80 0 32
03:50 1024 30.24 853 25.19 3.1 37.5 80 -0.1 31.9
03:55 1024 30.24 854 25.22 3.1 37.6 81 0.2 32.4
04:00 1024 30.24 854 25.22 3.2 37.7 81 0.1 32.3
04:05 1024 30.24 854 25.22 3.2 37.8 80 0.2 32.3
04:10 1024 30.24 854 25.22 3.1 37.6 81 0.1 32.2
04:15 1024 30.24 853 25.19 3 37.5 81 0.1 32.1
04:20 1024 30.24 853 25.19 3.1 37.5 81 0.1 32.1
04:25 1024 30.24 853 25.19 3 37.4 81 0 32
04:30 1024 30.24 853 25.19 2.9 37.2 81 -0.1 31.9
04:35 1024 30.24 853 25.19 2.8 37.1 81 -0.1 31.8
04:40 1024 30.24 853 25.19 2.8 37.1 79 -0.4 31.4
04:45 1024 30.24 853 25.19 2.8 37 80 -0.4 31.3
04:50 1024 30.24 853 25.19 2.9 37.2 79 -0.4 31.3
04:55 1024 30.24 853 25.19 2.8 37.1 78 -0.6 31
05:00 1024 30.24 853 25.19 2.8 37 78 -0.7 30.8
05:05 1024 30.24 853 25.19 2.7 36.8 79 -0.7 30.8
05:10 1024 30.24 853 25.19 2.7 36.8 78 -0.7 30.7
05:15 1024 30.24 853 25.19 2.7 36.9 78 -0.7 30.8
05:20 1024 30.24 853 25.19 2.7 36.9 78 -0.7 30.8
05:25 1024 30.24 853 25.19 2.8 37.1 78 -0.7 30.7
05:30 1024 30.24 853 25.19 2.9 37.2 78 -0.6 30.9
05:35 1024 30.24 853 25.19 2.8 37.1 78 -0.6 30.9
05:40 1024 30.24 853 25.19 2.7 36.9 78 -0.6 30.8
05:45 1024 30.24 853 25.19 2.6 36.7 79 -0.7 30.7
05:50 1024 30.24 853 25.19 2.6 36.8 79 -0.7 30.8
05:55 1024 30.24 853 25.19 2.7 36.8 78 -0.7 30.7
06:00 1024 30.24 853 25.19 2.7 36.9 78 -0.7 30.8
06:05 1024 30.24 853 25.19 2.8 37 78 -0.7 30.7
06:10 1024 30.24 853 25.19 2.7 36.8 77 -0.9 30.3
06:15 1024 30.24 853 25.19 2.7 36.8 76 -1 30.1
06:20 1024 30.24 853 25.19 2.7 36.9 76 -1.2 29.9
06:25 1024 30.24 853 25.19 2.6 36.7 76 -1.2 29.8
06:30 1024 30.24 853 25.19 2.8 37 76 -1.1 30
06:35 1024 30.24 853 25.19 2.9 37.2 75 -1.1 30
06:40 1024 30.24 853 25.19 3.1 37.5 74 -1.1 29.9
06:45 1024 30.24 853 25.19 3.2 37.7 73 -1.1 29.9
06:50 1024 30.24 853 25.19 3.2 37.7 74 -1.1 30
06:55 1024 30.24 853 25.19 3.4 38.1 72 -1.1 30
07:00 1024 30.24 853 25.19 3.5 38.4 72 -1.1 30
07:05 1024 30.24 853 25.19 3.8 38.8 70 -1.2 29.8
07:10 1024 30.24 853 25.19 4 39.3 69 -1 30.1
07:15 1024 30.24 853 25.19 4.3 39.7 69 -1 30.3
07:20 1024 30.24 853 25.19 4.4 40 67 -1.1 29.9
07:25 1024 30.24 853 25.19 4.7 40.5 66 -1.1 30
07:30 1024 30.24 853 25.19 5.1 41.1 66 -0.8 30.5
07:35 1024 30.24 853 25.19 5.5 41.8 63 -0.9 30.3
07:40 1024 30.24 853 25.19 5.6 42.1 63 -0.9 30.3
07:45 1024 30.24 854 25.22 5.7 42.3 62 -1 30.2
07:50 1024 30.24 854 25.22 6.1 42.9 62 -0.7 30.7
07:55 1024 30.24 853 25.19 6.3 43.4 60 -0.8 30.5
08:00 1024 30.24 854 25.22 6.5 43.7 58 -1 30.2
08:05 1024 30.24 854 25.22 7.2 44.9 55 -1.2 29.9
08:10 1024 30.24 854 25.22 7.8 46 53 -1.1 29.9
08:15 1024 30.24 854 25.22 8.1 46.6 52 -1 30.2
08:20 1025 30.27 854 25.22 8.1 46.6 52 -1.2 29.9
08:25 1025 30.27 854 25.22 8.2 46.8 53 -0.9 30.5
08:30 1024 30.24 854 25.22 8.5 47.2 53 -0.6 30.9
08:35 1024 30.24 854 25.22 8.5 47.3 52 -0.8 30.6
08:40 1024 30.24 854 25.22 9.1 48.5 50 -0.7 30.8
08:45 1024 30.24 854 25.22 10.1 50.2 46 -0.9 30.4
08:50 1024 30.24 853 25.19 9.6 49.3 44 -2 28.3
08:55 1024 30.24 853 25.19 9.6 49.3 43 -2.3 27.9
09:00 1024 30.24 853 25.19 10 50.1 42 -2.3 27.8
09:05 1024 30.24 853 25.19 10.1 50.2 39 -3.1 26.5
09:10 1024 30.24 853 25.19 10.1 50.1 42 -2.3 27.9
09:15 1024 30.24 853 25.19 10.1 50.2 40 -2.8 27
09:20 1024 30.24 853 25.19 11.1 52 38 -2.6 27.3
09:25 1024 30.24 853 25.19 11.8 53.2 37 -2.3 27.9
09:30 1024 30.24 853 25.19 11.8 53.2 38 -2.1 28.3
09:35 1024 30.24 853 25.19 12.1 53.7 36 -2.7 27.2
09:40 1024 30.24 853 25.19 11.4 52.6 37 -2.6 27.4
09:45 1024 30.24 853 25.19 11.5 52.6 37 -2.8 26.9
09:50 1024 30.24 853 25.19 11.8 53.3 36 -2.8 26.9
09:55 1024 30.24 853 25.19 11.4 52.5 36 -3.2 26.2
10:00 1024 30.24 853 25.19 11.1 52.1 37 -2.9 26.8
10:05 1024 30.24 853 25.19 11.5 52.6 34 -3.9 24.9
10:10 1024 30.24 853 25.19 12.4 54.3 34 -3.1 26.5
10:15 1024 30.24 853 25.19 12.6 54.6 33 -3 26.5
10:20 1024 30.24 853 25.19 12.6 54.6 35 -2.6 27.3
10:25 1024 30.24 853 25.19 12.4 54.3 35 -2.5 27.4
10:30 1024 30.24 853 25.19 13.1 55.6 34 -2.4 27.6
10:35 1024 30.24 854 25.22 13.6 56.5 33 -2.3 27.9
10:40 1024 30.24 854 25.22 13.9 57.1 31 -2.8 26.9
10:45 1024 30.24 854 25.22 14 57.2 32 -2.3 27.9
10:50 1024 30.24 853 25.19 13.8 56.9 32 -2.5 27.4
10:55 1024 30.24 853 25.19 14 57.1 31 -2.7 27.1
11:00 1024 30.24 853 25.19 14.1 57.3 31 -2.9 26.8
11:05 1024 30.24 853 25.19 14.4 57.9 31 -2.3 27.8
11:10 1024 30.24 853 25.19 14.7 58.4 30 -2.8 27
11:15 1024 30.24 853 25.19 13.8 56.8 32 -2.7 27.2
11:20 1024 30.24 853 25.19 14.6 58.3 30 -2.7 27.1
11:25 1024 30.24 853 25.19 15.1 59.1 28 -3 26.6
11:30 1024 30.24 853 25.19 15 58.9 30 -2.4 27.7
11:35 1024 30.24 853 25.19 14.5 58.1 31 -2.3 27.8
11:40 1024 30.24 853 25.19 15.4 59.7 29 -2.7 27.2
11:45 1023 30.21 853 25.19 15.7 60.2 27 -3.1 26.5
11:50 1023 30.21 853 25.19 13.9 57.1 29 -3.5 25.6
11:55 1023 30.21 853 25.19 14.3 57.8 30 -3.1 26.4
12:00 1023 30.21 853 25.19 13.9 57.1 29 -3.7 25.3
12:05 1023 30.21 852 25.16 15 59 30 -2.4 27.7
12:10 1023 30.21 852 25.16 15.2 59.3 30 -2.4 27.8
12:15 1023 30.21 852 25.16 15.7 60.3 30 -1.9 28.6
12:20 1023 30.21 852 25.16 15 59.1 31 -2 28.3
12:25 1023 30.21 852 25.16 14.9 58.9 31 -1.9 28.6
12:30 1023 30.21 852 25.16 14.3 57.7 33 -1.8 28.8
12:35 1023 30.21 852 25.16 15.8 60.4 29 -2 28.4
12:40 1023 30.21 852 25.16 16.2 61.1 30 -1.2 29.8
12:45 1023 30.21 852 25.16 16.5 61.7 28 -1.7 28.9
12:50 1023 30.21 852 25.16 16.1 61.1 30 -1.4 29.6
12:55 1023 30.21 852 25.16 16.8 62.2 28 -1.8 28.8
13:00 1023 30.21 852 25.16 17.1 62.7 28 -1.4 29.5
13:05 1023 30.21 852 25.16 16.8 62.2 25 -3 26.6
13:10 1023 30.21 852 25.16 17.7 63.9 25 -2.4 27.7
13:15 1023 30.21 852 25.16 17.6 63.8 27 -1.7 29
13:20 1023 30.21 852 25.16 17.8 64 25 -2.2 28.1
13:25 1023 30.21 852 25.16 17.8 64 25 -2.3 27.9
13:30 1023 30.21 852 25.16 17.7 63.8 26 -2.1 28.3
13:35 1023 30.21 852 25.16 17.2 62.9 27 -2 28.4
13:40 1023 30.21 852 25.16 17 62.7 26 -2.3 27.8
13:45 1023 30.21 852 25.16 18 64.5 26 -1.5 29.3
13:50 1023 30.21 852 25.16 18.2 64.8 25 -1.8 28.7
13:55 1023 30.21 852 25.16 17.8 64.1 25 -2.5 27.5
14:00 1023 30.21 852 25.16 18.1 64.7 25 -2.3 27.9
14:05 1023 30.21 852 25.16 18.4 65.1 25 -1.9 28.6
14:10 1023 30.21 852 25.16 18.2 64.7 25 -1.8 28.7
14:15 1023 30.21 852 25.16 18.1 64.6 27 -1.2 29.8
14:20 1023 30.21 852 25.16 17.5 63.4 26 -1.9 28.5
14:25 1023 30.21 852 25.16 17.3 63.2 26 -2.5 27.5
14:30 1023 30.21 852 25.16 18.6 65.4 25 -1.8 28.7
14:35 1023 30.21 852 25.16 19.3 66.8 23 -2 28.4
14:40 1023 30.21 852 25.16 19.3 66.8 23 -2.2 28
14:45 1023 30.21 852 25.16 19.4 66.9 23 -2.1 28.3
14:50 1023 30.21 852 25.16 19.3 66.7 25 -0.9 30.3
14:55 1023 30.21 852 25.16 19 66.2 24 -2.1 28.1
15:00 1023 30.21 852 25.16 19.4 66.9 23 -1.9 28.5
15:05 1023 30.21 852 25.16 19.1 66.3 23 -2.1 28.1
15:10 1023 30.21 852 25.16 19.1 66.4 23 -2.2 28.1
15:15 1023 30.21 852 25.16 19 66.2 23 -2.7 27.2
15:20 1023 30.21 852 25.16 19.8 67.6 22 -2.2 28.1
15:25 1023 30.21 852 25.16 19.8 67.7 22 -2.5 27.5
15:30 1023 30.21 852 25.16 20.3 68.5 22 -2.1 28.2
15:35 1022 30.18 852 25.16 19.5 67.1 24 -1.6 29.1
15:40 1022 30.18 852 25.16 19.3 66.8 22 -2.9 26.8
15:45 1022 30.18 852 25.16 19.2 66.5 23 -2.2 28
15:50 1022 30.18 852 25.16 18.8 65.8 24 -2.3 27.9
15:55 1022 30.18 852 25.16 19.3 66.8 23 -2.3 27.8
16:00 1022 30.18 852 25.16 19.8 67.7 22 -2.3 27.9
16:05 1022 30.18 852 25.16 19.5 67.1 22 -2.5 27.5
16:10 1022 30.18 851 25.13 20.2 68.4 20 -3.1 26.4
16:15 1022 30.18 851 25.13 20 67.9 21 -2.8 27
16:20 1022 30.18 851 25.13 19.7 67.4 22 -2.8 27
16:25 1022 30.18 851 25.13 19.9 67.8 21 -2.8 27
16:30 1022 30.18 851 25.13 19.6 67.3 21 -3 26.5
16:35 1022 30.18 851 25.13 19.6 67.2 22 -2.7 27.1
16:40 1022 30.18 851 25.13 20.2 68.3 20 -3.1 26.5
16:45 1022 30.18 851 25.13 20.7 69.2 19 -3.6 25.5
16:50 1022 30.18 851 25.13 21.5 70.7 19 -3 26.6
16:55 1022 30.18 851 25.13 21.2 70.2 19 -3.1 26.3
17:00 1022 30.18 851 25.13 21.7 71.1 18 -3.4 25.8
17:05 1022 30.18 851 25.13 20.8 69.4 20 -2.9 26.8
17:10 1022 30.18 851 25.13 21 69.7 19 -3.3 26
17:15 1022 30.18 851 25.13 21.1 70 18 -3.7 25.3
17:20 1022 30.18 851 25.13 21.5 70.7 17 -4.8 23.4
17:25 1022 30.18 851 25.13 21.1 70 18 -3.9 24.9
17:30 1022 30.18 851 25.13 20.2 68.3 18 -4.5 23.9
17:35 1022 30.18 851 25.13 20.7 69.3 18 -4.2 24.4
17:40 1022 30.18 851 25.13 20.7 69.3 18 -4.4 24.2
17:45 1022 30.18 851 25.13 21.6 70.9 17 -4.3 24.3
17:50 1022 30.18 851 25.13 22.3 72.1 16 -4.3 24.3
17:55 1022 30.18 851 25.13 22.6 72.7 16 -4.4 24.1
18:00 1022 30.18 851 25.13 23 73.5 15 -4.7 23.6
18:05 1022 30.18 851 25.13 21.6 70.9 17 -4.2 24.4
18:10 1022 30.18 851 25.13 20.6 69 19 -4 24.9
18:15 1022 30.18 851 25.13 20.2 68.3 18 -4.6 23.7
18:20 1022 30.18 851 25.13 20.3 68.5 18 -4.6 23.6
18:25 1022 30.18 851 25.13 20.6 69.1 18 -4.6 23.7
18:30 1022 30.18 851 25.13 20.8 69.4 18 -4.4 24
18:35 1022 30.18 851 25.13 20.7 69.3 18 -4.5 24
18:40 1022 30.18 851 25.13 20.9 69.7 18 -4.4 24.1
18:45 1022 30.18 851 25.13 21.2 70.1 18 -4.1 24.6
18:50 1022 30.18 851 25.13 21 69.8 19 -3.6 25.6
18:55 1022 30.18 851 25.13 20.5 68.8 19 -3.9 25
19:00 1022 30.18 851 25.13 20.1 68.2 20 -3.6 25.5
19:05 1022 30.18 851 25.13 20.1 68.1 19 -4.1 24.6
19:10 1022 30.18 851 25.13 19.9 67.9 20 -3.3 26.1
19:15 1022 30.18 851 25.13 19.8 67.6 20 -4 24.8
19:20 1022 30.18 851 25.13 19.6 67.2 20 -4.2 24.5
19:25 1022 30.18 851 25.13 19.3 66.8 20 -3.9 25
19:30 1022 30.18 851 25.13 19.3 66.7 21 -3.4 25.8
19:35 1022 30.18 851 25.13 19.1 66.4 22 -3 26.6
19:40 1022 30.18 851 25.13 18.9 65.9 23 -2.9 26.8
19:45 1022 30.18 851 25.13 18.7 65.7 22 -3.4 25.8
19:50 1022 30.18 851 25.13 18.7 65.7 23 -2.9 26.8
19:55 1022 30.18 851 25.13 18.7 65.7 25 -1.7 28.9
20:00 1022 30.18 851 25.13 18.7 65.7 23 -2.9 26.7
20:05 1022 30.18 851 25.13 18.7 65.7 22 -3.1 26.4
20:10 1022 30.18 851 25.13 18.7 65.6 22 -3.2 26.2
20:15 1022 30.18 851 25.13 18.6 65.4 25 -1.8 28.8
20:20 1022 30.18 851 25.13 18.4 65.1 24 -2.4 27.7
20:25 1022 30.18 851 25.13 18.2 64.7 29 -0.1 31.8
20:30 1022 30.18 851 25.13 17.5 63.6 35 1.9 35.4
20:35 1022 30.18 851 25.13 16.9 62.4 36 1.7 35.1
20:40 1022 30.18 851 25.13 16.3 61.4 39 2.4 36.4
20:45 1022 30.18 851 25.13 16 60.7 38 1.9 35.5
20:50 1022 30.18 851 25.13 15.7 60.2 36 0.8 33.5
20:55 1022 30.18 851 25.13 15.5 59.8 36 0.8 33.4
21:00 1022 30.18 851 25.13 15.3 59.5 37 0.9 33.7
21:05 1022 30.18 851 25.13 15 58.9 38 1 33.7
21:10 1022 30.18 851 25.13 14.7 58.4 39 1 33.7
21:15 1022 30.18 851 25.13 14.5 58.1 38 0.5 32.9
21:20 1022 30.18 851 25.13 14.3 57.7 39 0.5 32.8
21:25 1022 30.18 851 25.13 14.1 57.4 39 0.3 32.6
21:30 1022 30.18 851 25.13 14.1 57.4 37 -0.2 31.6
21:35 1022 30.18 851 25.13 14.3 57.7 37 -0.1 31.8
21:40 1022 30.18 851 25.13 14.2 57.5 37 -0.1 31.8
21:45 1022 30.18 852 25.16 13.8 56.9 39 0.1 32.1
21:50 1022 30.18 852 25.16 13.6 56.5 39 0 32
21:55 1022 30.18 852 25.16 13.6 56.4 39 -0.1 31.8
22:00 1023 30.21 852 25.16 13.5 56.3 38 -0.4 31.2
22:05 1023 30.21 852 25.16 13.6 56.5 38 -0.3 31.5
22:10 1023 30.21 852 25.16 13.5 56.3 38 -0.4 31.3
22:15 1023 30.21 852 25.16 13.3 56 39 -0.3 31.5
22:20 1023 30.21 852 25.16 13.4 56 38 -0.7 30.8
22:25 1023 30.21 852 25.16 13.4 56.1 38 -0.6 30.9
22:30 1023 30.21 852 25.16 13 55.4 38 -0.8 30.6
22:35 1023 30.21 852 25.16 12.7 54.8 42 0.1 32.2
22:40 1023 30.21 852 25.16 12.7 54.9 39 -0.8 30.6
22:45 1023 30.21 852 25.16 12.9 55.2 37 -1.3 29.7
22:50 1023 30.21 852 25.16 12.9 55.2 38 -0.8 30.5
22:55 1023 30.21 853 25.19 12.6 54.6 38 -1.4 29.4
23:00 1023 30.21 853 25.19 12.5 54.6 39 -1.1 30.1
23:05 1023 30.21 853 25.19 12.4 54.3 38 -1.5 29.3
23:10 1023 30.21 853 25.19 12.3 54.2 39 -1.3 29.6
23:15 1024 30.24 853 25.19 12.3 54.1 38 -1.4 29.4
23:20 1024 30.24 853 25.19 12.2 53.9 39 -1.3 29.7
23:25 1024 30.24 853 25.19 12 53.5 40 -1.3 29.7
23:30 1023 30.21 853 25.19 11.7 53 40 -1.3 29.7
23:35 1023 30.21 853 25.19 11.7 53.1 39 -1.8 28.7
23:40 1023 30.21 853 25.19 12 53.7 38 -1.7 28.9
23:45 1023 30.21 853 25.19 12 53.6 39 -1.5 29.4
23:50 1023 30.21 853 25.19 11.8 53.3 40 -1.4 29.4
23:55 1023 30.21 853 25.19 11.8 53.2 40 -1.3 29.6
24:00 1023 30.21 853 25.19 11.6 52.8 40 -1.6 29.2